MX-0035 weather

Punta Prieta Airstrip
Punta Prieta, Baja California, Mexico

Public forecast

Using degrees Celsius for public forecast. Weather courtesy of forecast.io.

Closest aviation weather report (METAR) to Punta Prieta Airstrip

Closest report is General Ignacio P. Garcia International Airport, 163.3 nm (302.4 km) E. Retrieved 2020/06/02 00:40 UTC (1 hour ago):

MMHO 020040Z 23012KT 10SM SKC 37/19 A2979 RMK DSNT CB N HZY

Closest aviation forecast (TAF) to Punta Prieta Airstrip

Forecast is more than 6 hours old.

Closest forecast is General Ignacio P. Garcia International Airport, 163.3 nm (302.4 km) E. Retrieved 2020/06/01 18:09 UTC (8 hours ago):

TAF MMHO 011706Z 0118/0218 26012KT P6SM SKC BECMG 0200/0201 00000KT FM021500 12010KT P6SM SKC